Time;durP1;ratioP1;P1;durP2;ratioP2;P2;SDS_P1;SDS_P2;PMS_P1;PMS_P2;Temp;Humidity;BMP_temperature;BMP_pressure;BME280_temperature;BME280_humidity;BME280_pressure;Samples;Min_cycle;Max_cycle;Signal;HPM_P1;HPM_P2
2020/12/14 00:00:14;;;;;;;18.20;13.10;;;5.80;99.90;;;;;;5111318;28;20184;-82
2020/12/14 00:02:41;;;;;;;23.40;12.30;;;5.80;99.90;;;;;;5112166;28;20371;-82
2020/12/14 00:05:08;;;;;;;24.37;14.27;;;6.00;99.90;;;;;;5112628;28;20487;-83
2020/12/14 00:07:34;;;;;;;18.63;13.20;;;6.10;99.90;;;;;;5113018;28;20397;-83
2020/12/14 00:10:01;;;;;;;14.47;11.03;;;6.20;99.90;;;;;;5112691;28;20483;-83
2020/12/14 00:12:30;;;;;;;20.20;13.17;;;6.20;99.90;;;;;;5094294;28;20370;-82
2020/12/14 00:14:56;;;;;;;17.60;13.40;;;6.10;99.90;;;;;;5112081;28;20434;-81
2020/12/14 00:17:22;;;;;;;15.37;11.87;;;6.20;99.90;;;;;;5108669;28;20385;-81
2020/12/14 00:19:48;;;;;;;18.47;10.80;;;6.20;99.90;;;;;;5089051;28;20209;-81
2020/12/14 00:22:14;;;;;;;16.23;11.27;;;6.00;99.90;;;;;;5109117;28;20178;-81
2020/12/14 00:24:40;;;;;;;11.87;9.20;;;6.10;99.90;;;;;;5110181;28;20406;-83
2020/12/14 00:27:06;;;;;;;15.50;11.10;;;6.00;99.90;;;;;;5110758;28;20174;-82
2020/12/14 00:29:32;;;;;;;11.20;9.83;;;6.00;99.90;;;;;;5106942;28;20491;-83
2020/12/14 00:31:58;;;;;;;14.43;10.37;;;6.00;99.90;;;;;;5111722;28;20376;-82
2020/12/14 00:34:26;;;;;;;14.57;11.93;;;6.00;99.90;;;;;;5111564;28;20159;-82
2020/12/14 00:36:52;;;;;;;17.47;11.00;;;5.80;99.90;;;;;;5111780;28;20166;-83
2020/12/14 00:39:18;;;;;;;15.40;11.30;;;5.70;99.90;;;;;;5111850;28;20368;-83
2020/12/14 00:41:44;;;;;;;14.70;10.70;;;5.80;99.90;;;;;;5112307;28;20167;-83
2020/12/14 00:44:09;;;;;;;16.70;11.33;;;5.80;99.90;;;;;;5112114;28;20170;-83
2020/12/14 00:46:35;;;;;;;14.87;10.33;;;5.60;99.90;;;;;;5093594;28;20204;-83
2020/12/14 00:49:02;;;;;;;16.20;12.47;;;5.50;99.90;;;;;;5115640;28;20188;-83
2020/12/14 00:51:29;;;;;;;17.07;10.70;;;5.40;99.90;;;;;;5118171;28;20214;-79
2020/12/14 00:53:55;;;;;;;19.07;12.47;;;5.40;99.90;;;;;;5100825;28;20397;-82
2020/12/14 00:56:21;;;;;;;12.30;11.00;;;5.40;99.90;;;;;;5116419;28;20417;-81
2020/12/14 00:58:48;;;;;;;15.57;11.30;;;5.30;99.90;;;;;;5111197;28;20763;-82
2020/12/14 01:01:15;;;;;;;16.50;11.27;;;5.20;99.90;;;;;;5111203;28;20166;-81
2020/12/14 01:03:42;;;;;;;13.63;9.97;;;5.20;99.90;;;;;;5092791;28;20399;-82
2020/12/14 01:06:08;;;;;;;15.73;11.20;;;5.20;99.90;;;;;;5091646;28;20403;-83
2020/12/14 01:08:34;;;;;;;15.77;11.60;;;5.20;99.90;;;;;;5110797;28;20393;-82
2020/12/14 01:11:03;;;;;;;15.00;11.07;;;5.20;99.90;;;;;;5092215;28;20201;-82
2020/12/14 01:13:29;;;;;;;13.63;11.10;;;5.10;99.90;;;;;;5110157;28;20540;-83
2020/12/14 01:15:55;;;;;;;17.10;11.27;;;5.10;99.90;;;;;;5076107;28;20401;-82
2020/12/14 01:18:21;;;;;;;16.50;12.83;;;5.20;99.90;;;;;;5059471;28;20179;-82
2020/12/14 01:20:47;;;;;;;20.00;12.03;;;5.20;99.90;;;;;;5108893;28;20486;-81
2020/12/14 01:23:13;;;;;;;17.07;11.40;;;5.10;99.90;;;;;;5109780;28;20178;-81
2020/12/14 01:25:39;;;;;;;19.80;12.90;;;5.10;99.90;;;;;;5095416;28;20173;-82
2020/12/14 01:28:06;;;;;;;14.17;11.50;;;5.10;99.90;;;;;;5112297;28;20401;-82
2020/12/14 01:30:35;;;;;;;15.17;12.93;;;5.10;99.90;;;;;;5110722;28;20281;-81
2020/12/14 01:33:01;;;;;;;18.23;10.70;;;5.20;99.90;;;;;;5112807;28;20500;-81
2020/12/14 01:35:27;;;;;;;18.87;12.37;;;5.20;99.90;;;;;;5095820;28;20166;-82
2020/12/14 01:37:54;;;;;;;17.23;13.20;;;5.10;99.90;;;;;;5111461;28;20737;-81
2020/12/14 01:40:21;;;;;;;16.93;11.10;;;5.00;99.90;;;;;;5092788;28;20934;-81
2020/12/14 01:42:48;;;;;;;16.43;10.53;;;5.00;99.90;;;;;;5110840;28;20443;-81
2020/12/14 01:45:18;;;;;;;19.43;13.50;;;5.00;99.90;;;;;;5111260;28;20417;-79
2020/12/14 01:47:48;;;;;;;15.73;12.17;;;5.00;99.90;;;;;;5111227;28;20446;-81
2020/12/14 01:50:18;;;;;;;15.70;11.37;;;5.20;99.90;;;;;;5093511;28;20436;-81
2020/12/14 01:52:46;;;;;;;20.83;11.97;;;5.20;99.90;;;;;;5110930;28;20404;-81
2020/12/14 01:55:16;;;;;;;20.80;13.97;;;5.20;99.90;;;;;;5111152;28;20408;-82
2020/12/14 01:57:42;;;;;;;18.13;10.67;;;5.20;99.90;;;;;;5110662;28;20404;-82
2020/12/14 02:00:10;;;;;;;20.57;12.43;;;5.10;99.90;;;;;;5111283;28;20424;-82
2020/12/14 02:02:39;;;;;;;15.53;11.60;;;5.10;99.90;;;;;;5094040;28;20433;-81
2020/12/14 02:05:07;;;;;;;15.53;11.87;;;4.90;99.90;;;;;;5111186;28;20375;-82
2020/12/14 02:07:34;;;;;;;14.80;11.33;;;4.90;99.90;;;;;;5111617;28;20403;-81
2020/12/14 02:10:01;;;;;;;16.13;11.90;;;4.90;99.90;;;;;;5111617;28;20441;-81
2020/12/14 02:12:28;;;;;;;16.23;11.10;;;4.80;99.90;;;;;;5111416;28;20949;-83
2020/12/14 02:14:57;;;;;;;17.53;12.33;;;4.80;99.90;;;;;;5089358;28;20449;-82
2020/12/14 02:17:25;;;;;;;15.87;10.30;;;4.80;99.90;;;;;;5091529;28;20401;-81
2020/12/14 02:19:53;;;;;;;16.17;12.70;;;4.70;99.90;;;;;;5090342;28;20467;-81
2020/12/14 02:22:21;;;;;;;25.33;12.00;;;4.70;99.90;;;;;;5092458;28;20424;-83
2020/12/14 02:25:05;;;;;;;15.10;12.30;;;4.70;99.90;;;;;;5091613;28;20408;-82
2020/12/14 02:27:53;;;;;;;16.70;10.60;;;4.50;99.90;;;;;;5092247;28;20390;-83
2020/12/14 02:30:19;;;;;;;16.40;10.60;;;4.50;99.90;;;;;;5089800;28;20470;-82
2020/12/14 02:32:45;;;;;;;15.37;10.10;;;4.60;99.90;;;;;;5073779;28;20413;-81
2020/12/14 02:35:10;;;;;;;16.67;10.73;;;4.60;99.90;;;;;;5090002;28;20160;-82
2020/12/14 02:37:36;;;;;;;21.60;12.33;;;4.70;99.90;;;;;;5091614;28;20247;-82
2020/12/14 02:40:03;;;;;;;17.90;10.97;;;4.50;99.90;;;;;;5092968;28;20171;-83
2020/12/14 02:42:32;;;;;;;15.03;10.43;;;4.60;99.90;;;;;;5092320;28;20385;-83
2020/12/14 02:44:57;;;;;;;12.90;9.60;;;4.50;99.90;;;;;;5092564;28;20437;-82
2020/12/14 02:47:27;;;;;;;17.07;11.80;;;4.70;99.90;;;;;;5092939;28;20160;-81
2020/12/14 02:49:53;;;;;;;19.13;10.53;;;4.50;99.90;;;;;;5059551;28;20278;-83
2020/12/14 02:52:19;;;;;;;16.47;10.00;;;4.60;99.90;;;;;;5077419;28;20402;-83
2020/12/14 02:54:45;;;;;;;15.20;11.00;;;4.60;99.90;;;;;;5094592;28;20385;-83
2020/12/14 02:57:12;;;;;;;19.87;11.23;;;4.60;99.90;;;;;;5094753;28;20239;-83
2020/12/14 02:59:38;;;;;;;11.43;10.23;;;4.60;99.90;;;;;;5098320;28;20405;-81
2020/12/14 03:02:04;;;;;;;13.83;10.57;;;4.60;99.90;;;;;;5098523;28;20430;-83
2020/12/14 03:04:30;;;;;;;13.10;9.70;;;4.60;99.90;;;;;;5092830;28;20425;-82
2020/12/14 03:06:56;;;;;;;13.73;9.90;;;4.60;99.90;;;;;;5069877;28;20893;-81
2020/12/14 03:09:22;;;;;;;11.20;9.90;;;4.40;99.90;;;;;;5071087;28;20402;-81
2020/12/14 03:11:49;;;;;;;13.83;10.00;;;4.60;99.90;;;;;;5087477;28;20271;-82
2020/12/14 03:14:17;;;;;;;16.57;9.93;;;4.70;99.90;;;;;;5089547;28;20449;-82
2020/12/14 03:16:46;;;;;;;13.60;9.30;;;4.50;99.90;;;;;;5090566;28;20783;-82
2020/12/14 03:19:12;;;;;;;11.53;9.30;;;4.40;99.90;;;;;;5091417;28;20404;-82
2020/12/14 03:21:39;;;;;;;12.17;8.70;;;4.50;99.90;;;;;;5090971;28;20428;-82
2020/12/14 03:24:05;;;;;;;15.30;10.93;;;4.60;99.90;;;;;;5090828;28;20919;-81
2020/12/14 03:26:30;;;;;;;13.50;11.03;;;4.50;99.90;;;;;;5091272;28;20402;-81
2020/12/14 03:29:00;;;;;;;12.60;8.93;;;4.50;99.90;;;;;;5090625;28;20186;-83
2020/12/14 03:31:26;;;;;;;11.93;9.30;;;4.60;99.90;;;;;;5092118;28;20466;-83
2020/12/14 03:33:53;;;;;;;12.20;8.47;;;4.50;99.90;;;;;;5091856;28;20378;-83
2020/12/14 03:36:20;;;;;;;15.03;11.27;;;4.50;99.90;;;;;;5089968;28;20394;-83
2020/12/14 03:38:48;;;;;;;18.27;11.17;;;4.60;99.90;;;;;;5090302;28;20386;-82
2020/12/14 03:41:14;;;;;;;16.07;10.73;;;4.50;99.90;;;;;;5091510;28;20398;-82
2020/12/14 03:43:40;;;;;;;16.40;9.00;;;4.40;99.90;;;;;;5089407;28;20394;-82
2020/12/14 03:46:05;;;;;;;17.47;11.10;;;4.40;99.90;;;;;;5091030;28;20394;-83
2020/12/14 03:48:31;;;;;;;13.33;8.47;;;4.40;99.90;;;;;;5091617;28;20289;-83
2020/12/14 03:50:57;;;;;;;10.50;9.40;;;4.40;99.90;;;;;;5090787;28;20194;-82
2020/12/14 03:53:22;;;;;;;12.80;9.33;;;4.40;99.90;;;;;;5090797;28;20178;-83
2020/12/14 03:55:51;;;;;;;13.27;8.67;;;4.40;99.90;;;;;;5090645;28;20163;-82
2020/12/14 03:58:17;;;;;;;15.17;8.93;;;4.30;99.90;;;;;;5091784;28;20163;-83
2020/12/14 04:00:45;;;;;;;15.80;10.73;;;4.30;99.90;;;;;;5092374;28;20420;-84
2020/12/14 04:03:11;;;;;;;13.80;8.63;;;4.50;99.90;;;;;;5093316;28;20390;-83
2020/12/14 04:05:38;;;;;;;16.13;9.60;;;4.50;99.90;;;;;;5094172;28;20401;-84
2020/12/14 04:08:04;;;;;;;12.63;9.77;;;4.50;99.90;;;;;;5093399;28;20227;-83
2020/12/14 04:10:30;;;;;;;16.83;9.03;;;4.40;99.90;;;;;;5075952;28;20434;-83
2020/12/14 04:12:56;;;;;;;15.57;10.27;;;4.40;99.90;;;;;;5096113;28;20431;-83
2020/12/14 04:15:26;;;;;;;16.10;9.47;;;4.30;99.90;;;;;;5113201;28;20456;-83
2020/12/14 04:17:52;;;;;;;14.90;9.10;;;4.40;99.90;;;;;;5113920;28;20169;-83
2020/12/14 04:20:18;;;;;;;17.90;8.63;;;4.40;99.90;;;;;;5112654;28;20449;-83
2020/12/14 04:22:48;;;;;;;13.90;8.80;;;4.40;99.90;;;;;;5112587;28;20187;-83
2020/12/14 04:25:16;;;;;;;13.30;9.47;;;4.60;99.90;;;;;;5112746;28;20147;-83
2020/12/14 04:27:42;;;;;;;13.97;8.87;;;4.60;99.90;;;;;;5113046;28;20397;-83
2020/12/14 04:30:08;;;;;;;11.40;8.83;;;4.60;99.90;;;;;;5112917;28;20449;-83
2020/12/14 04:32:34;;;;;;;17.03;8.43;;;4.70;99.90;;;;;;5112964;28;20389;-83
2020/12/14 04:35:01;;;;;;;11.13;9.10;;;4.60;99.90;;;;;;5112216;28;20396;-83
2020/12/14 04:37:26;;;;;;;12.33;9.20;;;4.60;99.90;;;;;;5113287;28;20188;-83
2020/12/14 04:39:52;;;;;;;11.27;8.10;;;4.60;99.90;;;;;;5113414;28;20392;-83
2020/12/14 04:42:18;;;;;;;15.03;10.00;;;4.60;99.90;;;;;;5113846;28;20173;-83
2020/12/14 04:44:45;;;;;;;11.67;8.80;;;4.60;99.90;;;;;;5113681;28;20159;-83
2020/12/14 04:47:12;;;;;;;9.20;8.20;;;4.50;99.90;;;;;;5121219;28;20234;-83
2020/12/14 04:49:40;;;;;;;11.33;7.70;;;4.60;99.90;;;;;;5133970;28;20903;-83
2020/12/14 04:52:07;;;;;;;16.67;8.70;;;4.50;99.90;;;;;;5134377;28;20460;-83
2020/12/14 04:54:33;;;;;;;15.53;9.43;;;4.40;99.90;;;;;;5134296;28;20408;-83
2020/12/14 04:57:08;;;;;;;14.00;9.27;;;4.40;99.90;;;;;;5128753;28;20401;-83
2020/12/14 04:59:37;;;;;;;12.70;8.27;;;4.40;99.90;;;;;;5099310;28;20458;-83
2020/12/14 05:02:05;;;;;;;11.50;8.00;;;4.50;99.90;;;;;;5121511;28;20428;-83
2020/12/14 05:04:31;;;;;;;12.87;8.60;;;4.50;99.90;;;;;;5122426;28;20395;-84
2020/12/14 05:06:57;;;;;;;15.57;8.30;;;4.40;99.90;;;;;;5122213;28;20390;-82
2020/12/14 05:09:23;;;;;;;14.30;8.80;;;4.60;99.90;;;;;;5122279;28;20359;-82
2020/12/14 05:11:49;;;;;;;9.10;6.87;;;4.30;99.90;;;;;;5122146;28;20186;-84
2020/12/14 05:14:19;;;;;;;11.40;7.50;;;4.40;99.90;;;;;;5121811;28;20260;-82
2020/12/14 05:16:45;;;;;;;10.50;8.77;;;4.30;99.90;;;;;;5122277;28;20183;-83
2020/12/14 05:19:28;;;;;;;11.67;7.40;;;4.40;99.90;;;;;;5122177;28;20397;-83
2020/12/14 05:21:59;;;;;;;7.33;6.63;;;4.20;99.90;;;;;;5122077;28;20203;-81
2020/12/14 05:24:27;;;;;;;14.20;7.73;;;4.40;99.90;;;;;;5104505;28;20411;-82
2020/12/14 05:26:54;;;;;;;13.93;7.57;;;4.40;99.90;;;;;;5121822;28;20403;-81
2020/12/14 05:29:23;;;;;;;13.83;7.97;;;4.60;99.90;;;;;;5121647;28;20420;-82
2020/12/14 05:32:16;;;;;;;9.83;7.63;;;4.50;99.90;;;;;;5096031;28;20436;-81
2020/12/14 05:34:43;;;;;;;11.40;8.47;;;4.60;99.90;;;;;;5114307;28;20371;-81
2020/12/14 05:37:11;;;;;;;10.03;8.90;;;4.60;99.90;;;;;;5113511;28;20363;-81
2020/12/14 05:39:39;;;;;;;13.07;8.40;;;4.60;99.90;;;;;;5115823;28;20385;-83
2020/12/14 05:42:11;;;;;;;7.47;6.20;;;4.50;99.90;;;;;;5116120;28;20368;-83
2020/12/14 05:44:38;;;;;;;9.63;7.37;;;4.60;99.90;;;;;;5116938;28;20381;-82
2020/12/14 05:47:21;;;;;;;9.97;8.17;;;4.70;99.90;;;;;;5116727;28;20397;-83
2020/12/14 05:49:46;;;;;;;14.83;9.90;;;4.60;99.90;;;;;;5116339;28;20372;-83
2020/12/14 05:52:20;;;;;;;8.03;7.33;;;4.70;99.90;;;;;;5112207;28;20468;-84
2020/12/14 05:54:55;;;;;;;8.23;6.57;;;4.60;99.90;;;;;;5098421;28;20147;-84
2020/12/14 05:57:37;;;;;;;8.00;6.80;;;4.80;99.90;;;;;;5117136;28;20419;-84
2020/12/14 06:00:07;;;;;;;10.77;7.03;;;4.60;99.90;;;;;;5119733;28;20476;-81
2020/12/14 06:02:34;;;;;;;14.70;8.90;;;4.50;99.90;;;;;;5121195;28;20382;-80
2020/12/14 06:05:02;;;;;;;8.23;7.00;;;4.40;99.90;;;;;;5086349;28;20395;-80
2020/12/14 06:07:29;;;;;;;9.33;7.80;;;4.30;99.90;;;;;;5120310;28;20393;-83
2020/12/14 06:10:03;;;;;;;10.53;7.80;;;4.30;99.90;;;;;;5117999;28;20486;-83
2020/12/14 06:12:31;;;;;;;9.03;6.90;;;4.30;99.90;;;;;;5117812;28;20403;-83
2020/12/14 06:15:02;;;;;;;12.10;7.30;;;4.30;99.90;;;;;;5118387;28;20512;-83
2020/12/14 06:17:28;;;;;;;13.87;8.33;;;4.40;99.90;;;;;;5120327;28;20420;-81
2020/12/14 06:20:11;;;;;;;10.43;7.20;;;4.10;99.90;;;;;;5120841;28;20413;-82
2020/12/14 06:22:42;;;;;;;12.50;7.80;;;4.10;99.90;;;;;;5117168;28;20405;-83
2020/12/14 06:25:08;;;;;;;12.77;8.07;;;4.00;99.90;;;;;;5109884;28;20448;-81
2020/12/14 06:27:34;;;;;;;11.83;6.80;;;4.30;99.90;;;;;;5110071;28;20393;-81
2020/12/14 06:30:00;;;;;;;7.37;6.67;;;4.10;99.90;;;;;;5110305;28;20440;-81
2020/12/14 06:32:36;;;;;;;10.43;7.83;;;4.10;99.90;;;;;;5110099;28;20449;-82
2020/12/14 06:35:05;;;;;;;13.83;9.10;;;4.10;99.90;;;;;;5111750;28;20169;-81
2020/12/14 06:37:47;;;;;;;11.20;7.20;;;4.20;99.90;;;;;;5058402;28;20380;-82
2020/12/14 06:40:13;;;;;;;8.77;6.33;;;4.30;99.90;;;;;;5109294;28;20777;-81
2020/12/14 06:42:39;;;;;;;10.40;7.77;;;4.20;99.90;;;;;;5109808;28;20400;-81
2020/12/14 06:45:08;;;;;;;11.50;8.20;;;4.40;99.90;;;;;;5110134;28;20171;-81
2020/12/14 06:47:44;;;;;;;10.50;7.30;;;4.40;99.90;;;;;;5110272;28;20177;-83
2020/12/14 06:50:27;;;;;;;10.73;8.37;;;4.50;99.90;;;;;;5110644;28;20455;-81
2020/12/14 06:52:54;;;;;;;16.47;9.50;;;4.50;99.90;;;;;;5112386;28;20465;-83
2020/12/14 06:55:40;;;;;;;13.83;7.57;;;4.50;99.90;;;;;;5092428;28;20383;-82
2020/12/14 06:58:09;;;;;;;12.37;8.70;;;4.60;99.90;;;;;;5108053;28;20405;-83
2020/12/14 07:00:35;;;;;;;14.50;9.47;;;4.70;99.90;;;;;;5107627;28;20420;-81
2020/12/14 07:03:03;;;;;;;12.07;7.43;;;4.70;99.90;;;;;;5108603;28;20399;-81
2020/12/14 07:05:34;;;;;;;15.60;10.30;;;4.70;99.90;;;;;;5108455;28;20410;-82
2020/12/14 07:08:00;;;;;;;14.77;8.97;;;4.80;99.90;;;;;;5105699;28;20501;-82
2020/12/14 07:10:28;;;;;;;10.80;7.00;;;4.80;99.90;;;;;;5090521;28;20905;-82
2020/12/14 07:12:59;;;;;;;15.27;8.17;;;4.70;99.90;;;;;;5101185;28;20502;-82
2020/12/14 07:15:28;;;;;;;9.40;7.70;;;4.90;99.90;;;;;;5062583;28;20436;-83
2020/12/14 07:18:13;;;;;;;15.30;9.10;;;4.90;99.90;;;;;;5082049;28;20422;-81
2020/12/14 07:21:03;;;;;;;12.97;8.37;;;4.90;99.90;;;;;;5086539;28;20897;-81
2020/12/14 07:23:49;;;;;;;9.17;7.33;;;4.90;99.90;;;;;;5075880;28;20429;-81
2020/12/14 07:26:16;;;;;;;9.50;6.70;;;5.00;99.90;;;;;;5072088;28;20991;-84
2020/12/14 07:28:48;;;;;;;11.00;8.60;;;5.00;99.90;;;;;;5049776;28;20437;-83
2020/12/14 07:31:17;;;;;;;10.00;7.60;;;5.10;99.90;;;;;;5062554;28;20496;-83
2020/12/14 07:33:53;;;;;;;9.50;8.00;;;5.10;99.90;;;;;;5075242;28;20435;-83
2020/12/14 07:36:20;;;;;;;7.73;6.90;;;5.10;99.90;;;;;;5071992;28;20429;-84
2020/12/14 07:38:48;;;;;;;11.97;8.07;;;5.00;99.90;;;;;;5073424;28;20430;-83
2020/12/14 07:41:14;;;;;;;12.13;8.37;;;5.10;99.90;;;;;;5065700;28;20396;-81
2020/12/14 07:43:42;;;;;;;11.13;8.47;;;5.30;99.90;;;;;;5067739;28;20417;-81
2020/12/14 07:46:26;;;;;;;10.83;8.73;;;5.30;99.90;;;;;;5068030;28;20571;-82
2020/12/14 07:48:55;;;;;;;9.37;6.77;;;5.20;99.90;;;;;;5065164;28;20430;-82
2020/12/14 07:51:21;;;;;;;13.97;10.33;;;5.30;99.90;;;;;;5050840;28;20558;-82
2020/12/14 07:53:50;;;;;;;11.33;8.53;;;5.30;99.90;;;;;;5065052;28;20448;-80
2020/12/14 07:56:18;;;;;;;9.10;5.80;;;5.30;99.90;;;;;;5061984;28;20440;-80
2020/12/14 07:58:47;;;;;;;12.70;7.87;;;5.40;99.90;;;;;;5065911;28;20408;-81
2020/12/14 08:01:14;;;;;;;8.47;7.30;;;5.50;99.90;;;;;;5058795;28;20450;-82
2020/12/14 08:03:40;;;;;;;11.60;8.00;;;5.60;99.90;;;;;;5065002;28;20512;-82
2020/12/14 08:06:16;;;;;;;9.70;7.10;;;5.50;99.90;;;;;;5066912;28;20992;-82
2020/12/14 08:08:48;;;;;;;10.47;7.20;;;5.50;99.90;;;;;;5068129;28;20188;-83
2020/12/14 08:11:16;;;;;;;13.90;9.07;;;5.50;99.90;;;;;;5067196;28;20432;-82
2020/12/14 08:13:44;;;;;;;10.30;7.17;;;5.50;99.90;;;;;;5066572;28;20558;-83
2020/12/14 08:16:16;;;;;;;10.30;8.13;;;5.40;99.90;;;;;;5062451;28;20807;-82
2020/12/14 08:18:45;;;;;;;12.57;7.30;;;5.50;99.90;;;;;;5089080;28;20436;-83
2020/12/14 08:21:25;;;;;;;12.00;9.07;;;5.50;99.90;;;;;;5083546;28;20467;-82
2020/12/14 08:23:53;;;;;;;10.40;7.57;;;5.30;99.90;;;;;;5070298;28;20432;-82
2020/12/14 08:26:28;;;;;;;9.67;7.47;;;5.20;99.90;;;;;;5068433;28;20924;-82
2020/12/14 08:29:00;;;;;;;9.07;7.83;;;5.30;99.90;;;;;;5064774;28;20425;-82
2020/12/14 08:31:26;;;;;;;12.83;8.33;;;5.30;99.90;;;;;;5082159;28;20463;-82
2020/12/14 08:33:55;;;;;;;20.53;7.67;;;5.40;99.90;;;;;;5082168;28;20910;-82
2020/12/14 08:36:22;;;;;;;14.77;9.00;;;5.40;99.90;;;;;;5085414;28;20429;-82
2020/12/14 08:38:49;;;;;;;10.70;8.07;;;5.50;99.90;;;;;;5088204;28;20403;-82
2020/12/14 08:41:21;;;;;;;13.50;8.93;;;5.50;99.90;;;;;;5089077;28;20456;-80
2020/12/14 08:44:19;;;;;;;10.80;8.73;;;5.40;99.90;;;;;;5069707;28;20440;-83
2020/12/14 08:46:45;;;;;;;13.63;9.43;;;5.40;99.90;;;;;;4992967;28;20437;-82
2020/12/14 08:49:19;;;;;;;11.37;8.40;;;5.40;99.90;;;;;;4997946;28;20424;-80
2020/12/14 08:51:48;;;;;;;11.23;8.30;;;5.40;99.90;;;;;;4989507;28;20312;-81
2020/12/14 08:54:17;;;;;;;10.73;9.03;;;5.50;99.90;;;;;;4986236;28;20516;-80
2020/12/14 08:56:44;;;;;;;12.00;7.60;;;5.50;99.90;;;;;;4961360;28;20453;-80
2020/12/14 08:59:13;;;;;;;11.70;8.03;;;5.50;99.90;;;;;;4982812;28;20438;-80
2020/12/14 09:01:40;;;;;;;11.73;8.47;;;5.70;99.90;;;;;;5000318;28;20449;-81
2020/12/14 09:04:06;;;;;;;10.07;8.33;;;5.60;99.90;;;;;;4966574;28;20477;-81
2020/12/14 09:06:35;;;;;;;21.23;7.90;;;5.80;99.90;;;;;;4973962;28;20483;-80
2020/12/14 09:09:10;;;;;;;9.27;7.63;;;5.80;99.90;;;;;;4984758;28;20481;-79
2020/12/14 09:11:49;;;;;;;9.17;7.47;;;5.80;99.90;;;;;;4994931;28;20480;-80
2020/12/14 09:14:19;;;;;;;12.90;8.53;;;5.80;99.90;;;;;;4991743;28;20477;-80
2020/12/14 09:16:48;;;;;;;12.30;7.00;;;5.80;99.90;;;;;;4983375;28;20742;-79
2020/12/14 09:19:23;;;;;;;10.10;6.53;;;5.80;99.90;;;;;;4983569;28;20476;-80
2020/12/14 09:21:49;;;;;;;13.20;7.77;;;5.70;99.90;;;;;;4983451;28;20408;-78
2020/12/14 09:24:27;;;;;;;12.00;8.70;;;5.70;99.90;;;;;;4996891;28;20516;-81
2020/12/14 09:27:02;;;;;;;14.47;7.63;;;5.80;99.90;;;;;;5001473;28;20596;-79
2020/12/14 09:29:28;;;;;;;9.80;7.00;;;5.80;99.90;;;;;;5000388;28;20476;-81
2020/12/14 09:31:56;;;;;;;12.77;8.10;;;5.90;99.90;;;;;;5003373;28;20475;-80
2020/12/14 09:34:22;;;;;;;9.00;8.10;;;5.90;99.90;;;;;;5017877;28;20986;-79
2020/12/14 09:36:56;;;;;;;13.07;9.20;;;5.90;99.90;;;;;;4990101;28;20432;-79
2020/12/14 09:39:23;;;;;;;10.50;7.20;;;5.90;99.90;;;;;;4997789;28;20447;-78
2020/12/14 09:41:51;;;;;;;10.10;6.87;;;6.00;99.90;;;;;;5006805;28;20440;-81
2020/12/14 09:44:18;;;;;;;10.10;8.20;;;6.00;99.90;;;;;;5019716;28;20436;-80
2020/12/14 09:46:45;;;;;;;11.13;7.73;;;6.20;99.90;;;;;;5025253;28;20507;-79
2020/12/14 09:49:11;;;;;;;9.63;6.80;;;6.20;99.90;;;;;;5033385;28;20802;-81
2020/12/14 09:51:38;;;;;;;7.17;6.00;;;6.00;99.90;;;;;;5035171;28;20477;-81
2020/12/14 09:54:05;;;;;;;9.60;7.67;;;6.10;99.90;;;;;;5026527;28;20949;-81
2020/12/14 09:56:32;;;;;;;6.93;6.10;;;6.10;99.90;;;;;;5044032;28;20518;-79
2020/12/14 09:59:02;;;;;;;10.00;7.77;;;6.10;99.90;;;;;;5043690;28;20474;-80
2020/12/14 10:01:31;;;;;;;10.47;6.83;;;6.00;99.90;;;;;;5007497;28;20420;-80
2020/12/14 10:03:57;;;;;;;12.80;10.20;;;5.90;99.90;;;;;;5029069;28;20451;-80
2020/12/14 10:06:24;;;;;;;8.93;6.23;;;6.00;99.90;;;;;;5046739;28;20923;-80
2020/12/14 10:08:50;;;;;;;11.67;8.73;;;6.00;99.90;;;;;;5046479;28;20467;-81
2020/12/14 10:11:16;;;;;;;10.40;7.97;;;6.10;99.90;;;;;;5041016;28;20467;-79
2020/12/14 10:13:43;;;;;;;12.87;8.37;;;6.10;99.90;;;;;;5022270;28;20261;-79
2020/12/14 10:16:13;;;;;;;8.13;7.00;;;6.00;99.90;;;;;;5053692;28;20489;-81
2020/12/14 10:18:38;;;;;;;8.77;7.23;;;6.00;99.90;;;;;;5043008;28;21026;-82
2020/12/14 10:21:06;;;;;;;11.20;8.03;;;6.00;99.90;;;;;;5080421;28;20464;-81
2020/12/14 10:23:32;;;;;;;12.03;7.83;;;6.10;99.90;;;;;;5064766;28;20223;-81
2020/12/14 10:25:59;;;;;;;9.17;7.33;;;6.00;99.90;;;;;;5087890;28;20440;-83
2020/12/14 10:28:26;;;;;;;10.30;9.10;;;6.20;99.90;;;;;;5074239;28;20631;-83
2020/12/14 10:30:52;;;;;;;12.97;9.00;;;6.20;99.90;;;;;;5024379;28;20699;-83
2020/12/14 10:33:18;;;;;;;13.50;8.70;;;6.10;99.90;;;;;;5087283;28;20511;-82
2020/12/14 10:35:47;;;;;;;13.83;9.10;;;6.30;99.90;;;;;;5065214;28;20449;-82
2020/12/14 10:38:13;;;;;;;12.60;8.50;;;6.30;99.90;;;;;;5091644;28;20924;-81
2020/12/14 10:40:51;;;;;;;10.43;8.10;;;6.20;99.90;;;;;;5065420;28;20487;-81
2020/12/14 10:43:17;;;;;;;13.60;8.03;;;6.10;99.90;;;;;;5070985;28;20439;-82
2020/12/14 10:45:43;;;;;;;11.03;9.17;;;6.30;99.90;;;;;;5083684;28;20525;-81
2020/12/14 10:48:09;;;;;;;9.23;8.30;;;6.30;99.90;;;;;;5068674;28;20958;-83
2020/12/14 10:50:39;;;;;;;11.30;8.77;;;6.30;99.90;;;;;;5008746;28;20296;-81
2020/12/14 10:53:05;;;;;;;9.33;7.37;;;6.40;99.90;;;;;;4983563;28;20461;-82
2020/12/14 10:55:31;;;;;;;9.80;8.80;;;6.30;99.90;;;;;;5034004;28;20434;-82
2020/12/14 10:57:57;;;;;;;11.33;7.47;;;6.30;99.90;;;;;;5031945;28;20884;-81
2020/12/14 11:00:23;;;;;;;13.97;9.27;;;6.20;99.90;;;;;;5029931;28;20525;-82
2020/12/14 11:02:49;;;;;;;9.80;7.20;;;6.10;99.90;;;;;;5031279;28;20557;-81
2020/12/14 11:05:16;;;;;;;10.50;7.83;;;6.20;99.90;;;;;;5018139;28;20505;-82
2020/12/14 11:07:42;;;;;;;12.20;8.47;;;6.30;99.90;;;;;;5010687;28;20235;-80
2020/12/14 11:10:10;;;;;;;9.67;8.13;;;6.20;99.90;;;;;;5019399;28;20844;-81
2020/12/14 11:12:36;;;;;;;25.00;10.43;;;6.30;99.90;;;;;;5011896;28;20624;-82
2020/12/14 11:15:07;;;;;;;13.63;8.20;;;6.40;99.90;;;;;;5031897;28;20517;-82
2020/12/14 11:17:34;;;;;;;9.23;8.20;;;6.40;99.90;;;;;;5014734;28;20401;-81
2020/12/14 11:20:05;;;;;;;13.27;8.60;;;6.30;99.90;;;;;;5027099;28;20473;-82
2020/12/14 11:22:31;;;;;;;13.50;9.00;;;6.30;99.90;;;;;;5047179;28;20450;-82
2020/12/14 11:25:00;;;;;;;9.17;7.00;;;6.40;99.90;;;;;;5045131;28;20457;-80
2020/12/14 11:27:26;;;;;;;9.53;8.63;;;6.20;99.90;;;;;;5033318;28;20491;-80
2020/12/14 11:30:01;;;;;;;9.87;7.50;;;6.30;99.90;;;;;;5090103;28;20444;-79
2020/12/14 11:32:29;;;;;;;10.67;8.53;;;6.40;99.90;;;;;;5053369;28;20420;-79
2020/12/14 11:34:55;;;;;;;8.33;7.53;;;6.40;99.90;;;;;;5098844;28;20436;-79
2020/12/14 11:37:22;;;;;;;8.57;7.23;;;6.40;99.90;;;;;;5069675;28;20431;-80
2020/12/14 11:39:48;;;;;;;7.30;6.60;;;6.30;99.90;;;;;;5075953;28;20713;-80
2020/12/14 11:42:14;;;;;;;8.37;7.70;;;6.10;99.90;;;;;;5021501;28;20427;-80
2020/12/14 11:44:40;;;;;;;8.23;7.57;;;6.20;99.90;;;;;;5038325;28;20434;-80
2020/12/14 11:47:07;;;;;;;8.47;7.60;;;6.30;99.90;;;;;;5052946;28;20203;-79
2020/12/14 11:49:33;;;;;;;9.33;7.20;;;6.20;99.90;;;;;;5020774;28;20173;-79
2020/12/14 11:52:02;;;;;;;10.60;8.17;;;6.20;99.90;;;;;;5032649;28;20510;-79
2020/12/14 11:54:30;;;;;;;6.73;6.03;;;6.20;99.90;;;;;;5032559;28;20439;-80
2020/12/14 11:56:56;;;;;;;12.60;6.20;;;6.10;99.90;;;;;;5016375;28;20408;-81
2020/12/14 11:59:28;;;;;;;9.87;8.87;;;6.20;99.90;;;;;;5059482;28;20431;-80
2020/12/14 12:01:55;;;;;;;8.70;7.33;;;6.10;99.90;;;;;;5064498;28;20214;-81
2020/12/14 12:04:21;;;;;;;10.33;8.47;;;6.20;99.90;;;;;;5028673;28;20416;-78
2020/12/14 12:06:47;;;;;;;12.03;8.50;;;6.30;99.90;;;;;;5045363;28;20441;-80
2020/12/14 12:09:13;;;;;;;12.33;7.80;;;6.40;99.90;;;;;;5035187;28;20437;-78
2020/12/14 12:11:39;;;;;;;8.57;6.80;;;6.50;99.90;;;;;;5031044;28;20319;-78
2020/12/14 12:14:05;;;;;;;9.33;7.10;;;6.50;99.90;;;;;;5058836;28;20534;-78
2020/12/14 12:16:30;;;;;;;6.90;6.13;;;6.60;99.90;;;;;;5064548;28;20259;-78
2020/12/14 12:18:56;;;;;;;13.10;7.33;;;6.60;99.90;;;;;;5046608;28;20438;-81
2020/12/14 12:21:22;;;;;;;9.93;7.43;;;6.50;99.90;;;;;;5076219;28;20458;-79
2020/12/14 12:23:48;;;;;;;6.77;5.97;;;6.50;99.90;;;;;;5065163;28;20210;-78
2020/12/14 12:26:14;;;;;;;9.87;7.30;;;6.40;99.90;;;;;;5048142;28;20179;-79
2020/12/14 12:28:40;;;;;;;7.27;6.50;;;6.40;99.90;;;;;;5047543;28;20579;-79
2020/12/14 12:31:06;;;;;;;7.03;5.10;;;6.40;99.90;;;;;;5056947;28;20230;-80
2020/12/14 12:33:33;;;;;;;8.33;7.20;;;6.30;99.90;;;;;;5074157;28;20447;-80
2020/12/14 12:36:06;;;;;;;7.33;6.03;;;6.40;99.90;;;;;;5020375;28;20436;-79
2020/12/14 12:38:44;;;;;;;8.73;6.80;;;6.40;99.90;;;;;;5025101;28;20812;-81
2020/12/14 12:41:26;;;;;;;7.10;6.40;;;6.50;99.90;;;;;;5021772;28;20441;-82
2020/12/14 12:43:52;;;;;;;8.07;6.87;;;6.70;99.90;;;;;;5037009;28;20435;-81
2020/12/14 12:46:19;;;;;;;10.67;8.30;;;6.60;99.90;;;;;;5021943;28;20431;-79
2020/12/14 12:48:45;;;;;;;8.20;7.43;;;6.60;99.90;;;;;;5043618;28;20824;-80
2020/12/14 12:51:11;;;;;;;8.90;6.87;;;6.60;99.90;;;;;;5023121;28;20513;-81